Time;durP1;ratioP1;P1;durP2;ratioP2;P2;SDS_P1;SDS_P2;PMS_P1;PMS_P2;Temp;Humidity;BMP_temperature;BMP_pressure;BME280_temperature;BME280_humidity;BME280_pressure;Samples;Min_cycle;Max_cycle;Signal;HPM_P1;HPM_P2
2021/10/24 00:01:24;;;;;;;3.67;2.63;;;;;;;13.91;94.90;101137.84;5021457;28;20033;-68
2021/10/24 00:03:50;;;;;;;5.10;2.80;;;;;;;14.10;95.85;101177.41;5012179;28;20029;-68
2021/10/24 00:06:16;;;;;;;5.70;2.78;;;;;;;14.24;96.32;101209.03;5012086;28;20042;-67
2021/10/24 00:08:42;;;;;;;5.18;2.50;;;;;;;14.29;96.85;101193.63;5009014;28;20503;-68
2021/10/24 00:11:07;;;;;;;5.53;2.40;;;;;;;14.34;95.66;101205.94;5004201;28;20033;-67
2021/10/24 00:13:33;;;;;;;3.20;2.30;;;;;;;14.17;95.87;101204.50;5009312;28;20180;-69
2021/10/24 00:15:59;;;;;;;5.28;2.60;;;;;;;13.69;96.95;101143.13;5011083;28;20022;-66
2021/10/24 00:18:26;;;;;;;4.90;2.63;;;;;;;13.99;97.54;101222.91;5011183;28;20042;-68
2021/10/24 00:20:53;;;;;;;4.75;2.60;;;;;;;13.35;98.24;101111.66;5001348;28;20048;-66
2021/10/24 00:23:19;;;;;;;4.68;2.45;;;;;;;13.96;99.50;101209.84;5009831;28;20037;-65
2021/10/24 00:25:46;;;;;;;5.78;3.20;;;;;;;13.58;100.00;101130.69;5010907;28;20030;-70
2021/10/24 00:28:11;;;;;;;4.88;2.80;;;;;;;13.55;100.00;101109.78;5011173;28;20072;-65
2021/10/24 00:30:37;;;;;;;8.48;3.08;;;;;;;14.28;100.00;101216.13;5010418;28;20022;-69
2021/10/24 00:33:06;;;;;;;8.27;3.15;;;;;;;14.18;99.08;101227.00;5011437;28;20102;-69
2021/10/24 00:35:32;;;;;;;6.72;3.05;;;;;;;14.27;99.80;101237.72;5023631;28;20092;-66
2021/10/24 00:37:58;;;;;;;11.10;3.92;;;;;;;14.28;99.22;101234.31;5010893;28;20105;-68
2021/10/24 00:40:23;;;;;;;17.08;3.78;;;;;;;14.33;99.76;101224.06;5011493;28;20125;-67
2021/10/24 00:42:51;;;;;;;8.35;3.95;;;;;;;14.42;99.39;101226.06;5011866;28;20476;-67
2021/10/24 00:45:18;;;;;;;7.85;3.35;;;;;;;14.50;98.68;101235.88;5011659;28;20026;-68
2021/10/24 00:47:44;;;;;;;5.50;3.47;;;;;;;14.22;98.51;101229.78;5011568;28;20022;-65
2021/10/24 00:50:10;;;;;;;5.55;3.08;;;;;;;14.16;99.06;101233.88;5011473;28;20026;-69
2021/10/24 00:52:36;;;;;;;5.30;3.35;;;;;;;14.21;100.00;101224.53;5011337;28;20026;-66
2021/10/24 00:55:02;;;;;;;6.10;3.05;;;;;;;14.21;99.59;101240.13;5011487;28;20137;-68
2021/10/24 00:57:28;;;;;;;6.82;3.35;;;;;;;13.71;99.37;101154.47;5011432;28;20022;-64
2021/10/24 00:59:53;;;;;;;5.07;2.95;;;;;;;14.07;100.00;101226.66;5042494;28;20038;-68
2021/10/24 01:02:20;;;;;;;5.90;3.00;;;;;;;13.96;100.00;101239.25;5011271;28;20097;-65
2021/10/24 01:04:45;;;;;;;6.80;3.45;;;;;;;13.72;100.00;101219.38;5048420;28;20040;-67
2021/10/24 01:07:13;;;;;;;3.35;2.15;;;;;;;13.25;99.33;101241.81;5048569;28;20043;-64
2021/10/24 01:09:39;;;;;;;5.60;2.60;;;;;;;12.97;100.00;101243.31;5048612;28;20041;-66
2021/10/24 01:12:05;;;;;;;7.95;2.65;;;;;;;12.83;100.00;101239.31;5031712;28;20489;-64
2021/10/24 01:14:30;;;;;;;3.10;2.10;;;;;;;12.45;100.00;101247.28;5048370;28;20037;-69
2021/10/24 01:16:56;;;;;;;3.05;1.70;;;;;;;12.42;100.00;101242.84;5048261;28;20045;-66
2021/10/24 01:19:22;;;;;;;2.42;1.60;;;;;;;12.34;100.00;101259.75;5048261;28;20098;-67
2021/10/24 01:21:48;;;;;;;3.95;1.77;;;;;;;12.27;100.00;101268.09;5048373;28;20135;-67
2021/10/24 01:24:14;;;;;;;4.60;1.52;;;;;;;12.18;100.00;101265.13;5048468;28;20051;-65
2021/10/24 01:26:41;;;;;;;4.72;1.60;;;;;;;12.10;100.00;101244.97;5048371;28;20029;-69
2021/10/24 01:29:10;;;;;;;3.08;1.50;;;;;;;12.13;100.00;101251.97;5048357;28;20408;-68
2021/10/24 01:31:36;;;;;;;5.50;1.83;;;;;;;12.00;100.00;101266.09;5048368;28;20526;-67
2021/10/24 01:34:04;;;;;;;4.10;1.63;;;;;;;11.64;100.00;101178.25;5047957;28;20033;-67
2021/10/24 01:36:30;;;;;;;3.17;1.60;;;;;;;12.24;100.00;101257.63;5020008;28;20191;-69
2021/10/24 01:38:56;;;;;;;3.47;1.73;;;;;;;11.92;100.00;101192.38;5014261;28;20033;-67
2021/10/24 01:41:28;;;;;;;3.55;1.40;;;;;;;11.65;100.00;101167.97;5014729;28;20033;-68
2021/10/24 01:43:53;;;;;;;3.47;1.30;;;;;;;12.07;99.82;101272.41;5014698;28;20096;-67
2021/10/24 01:46:19;;;;;;;3.40;1.40;;;;;;;11.31;100.00;101168.16;5014533;28;20089;-65
2021/10/24 01:48:45;;;;;;;3.95;1.50;;;;;;;11.90;99.55;101279.38;5014556;28;20065;-68
2021/10/24 01:51:11;;;;;;;9.55;1.55;;;;;;;11.90;99.41;101281.97;5014639;28;20069;-70
2021/10/24 01:53:40;;;;;;;2.40;1.20;;;;;;;11.84;100.00;101281.69;5014583;28;20080;-69
2021/10/24 01:56:07;;;;;;;3.63;1.20;;;;;;;11.79;99.70;101264.28;5014298;28;20033;-67
2021/10/24 01:58:33;;;;;;;2.88;1.30;;;;;;;11.80;100.00;101281.56;5014482;28;20492;-70
2021/10/24 02:00:59;;;;;;;3.28;1.50;;;;;;;11.34;100.00;101196.75;5014094;28;20434;-68
2021/10/24 02:03:25;;;;;;;4.30;1.40;;;;;;;11.72;100.00;101289.81;5014314;28;20042;-65
2021/10/24 02:05:51;;;;;;;2.47;1.25;;;;;;;11.51;100.00;101308.69;5014369;28;20032;-64
2021/10/24 02:08:17;;;;;;;2.80;1.30;;;;;;;11.31;100.00;101287.06;5013973;28;20387;-65
2021/10/24 02:10:43;;;;;;;6.93;1.60;;;;;;;11.46;100.00;101311.06;5014045;28;20029;-68
2021/10/24 02:13:09;;;;;;;5.68;1.50;;;;;;;11.52;100.00;101315.63;5014273;28;20033;-68
2021/10/24 02:15:36;;;;;;;4.43;1.80;;;;;;;11.51;100.00;101302.63;5013507;28;20515;-68
2021/10/24 02:18:02;;;;;;;6.43;1.75;;;;;;;11.53;100.00;101309.66;5013327;28;20073;-68
2021/10/24 02:20:29;;;;;;;6.93;1.60;;;;;;;10.92;100.00;101222.34;5013749;28;20041;-67
2021/10/24 02:22:55;;;;;;;3.58;1.55;;;;;;;11.07;100.00;101227.38;5013897;28;20032;-64
2021/10/24 02:25:21;;;;;;;3.55;1.70;;;;;;;11.61;100.00;101320.34;5014179;28;20022;-64
2021/10/24 02:27:46;;;;;;;4.38;1.58;;;;;;;11.41;100.00;101317.69;5013880;28;20499;-68
2021/10/24 02:30:12;;;;;;;5.03;1.83;;;;;;;11.32;100.00;101346.59;5013689;28;20060;-69
2021/10/24 02:32:39;;;;;;;3.72;1.52;;;;;;;11.39;100.00;101333.94;5013628;28;20042;-66
2021/10/24 02:35:05;;;;;;;3.45;1.30;;;;;;;11.22;100.00;101325.41;5013971;28;20101;-67
2021/10/24 02:37:30;;;;;;;2.85;1.60;;;;;;;11.24;100.00;101335.00;5013690;28;20030;-67
2021/10/24 02:39:56;;;;;;;3.63;1.40;;;;;;;11.20;100.00;101360.63;5013925;28;20033;-67
2021/10/24 02:42:22;;;;;;;3.03;1.52;;;;;;;11.00;100.00;101342.44;5013537;28;20026;-66
2021/10/24 02:44:47;;;;;;;4.97;2.33;;;;;;;11.00;100.00;101350.19;5013428;28;20583;-67
2021/10/24 02:47:13;;;;;;;3.38;1.80;;;;;;;11.13;100.00;101362.91;5012409;28;20091;-66
2021/10/24 02:49:39;;;;;;;3.55;1.83;;;;;;;11.13;100.00;101367.22;5013190;28;20033;-69
2021/10/24 02:52:05;;;;;;;3.83;1.52;;;;;;;11.04;100.00;101366.75;5013525;28;20034;-68
2021/10/24 02:54:30;;;;;;;2.65;1.50;;;;;;;11.08;100.00;101369.56;5013366;28;20103;-66
2021/10/24 02:56:56;;;;;;;2.90;1.48;;;;;;;11.03;100.00;101383.03;5011898;28;20468;-70
2021/10/24 02:59:21;;;;;;;3.88;1.77;;;;;;;10.90;100.00;101363.47;5013352;28;20184;-68
2021/10/24 03:01:48;;;;;;;4.95;1.90;;;;;;;11.09;100.00;101375.59;5013039;28;20083;-64
2021/10/24 03:04:14;;;;;;;3.13;1.85;;;;;;;10.98;100.00;101367.34;5012964;28;20029;-65
2021/10/24 03:06:40;;;;;;;3.05;1.73;;;;;;;11.22;100.00;101382.28;5012848;28;20030;-68
2021/10/24 03:09:06;;;;;;;4.70;1.70;;;;;;;11.19;100.00;101374.34;5013321;28;20030;-67
2021/10/24 03:11:33;;;;;;;3.10;1.60;;;;;;;11.30;100.00;101386.09;5028315;28;20121;-67
2021/10/24 03:13:58;;;;;;;4.28;1.38;;;;;;;11.27;100.00;101399.75;5013004;28;20037;-66
2021/10/24 03:16:24;;;;;;;4.55;1.58;;;;;;;11.35;100.00;101402.72;5012975;28;20103;-68
2021/10/24 03:18:49;;;;;;;6.03;1.90;;;;;;;11.32;100.00;101397.41;5012679;28;20136;-67
2021/10/24 03:21:15;;;;;;;2.85;1.83;;;;;;;11.46;100.00;101406.75;5012902;28;20030;-67
2021/10/24 03:23:41;;;;;;;2.95;1.60;;;;;;;11.46;100.00;101404.16;5012659;28;20084;-68
2021/10/24 03:26:06;;;;;;;2.55;1.60;;;;;;;11.52;100.00;101410.44;5012511;28;20038;-68
2021/10/24 03:28:34;;;;;;;3.47;2.05;;;;;;;11.51;99.75;101396.59;5012659;28;20504;-69
2021/10/24 03:31:02;;;;;;;2.28;1.48;;;;;;;11.74;100.00;101413.22;5012763;28;20381;-66
2021/10/24 03:33:28;;;;;;;4.20;1.50;;;;;;;11.58;99.14;101365.03;5012722;28;20040;-67
2021/10/24 03:35:54;;;;;;;2.50;1.40;;;;;;;11.42;98.36;101314.31;5012450;28;20253;-68
2021/10/24 03:38:19;;;;;;;2.40;1.55;;;;;;;12.07;98.43;101409.56;5012565;28;20037;-69
2021/10/24 03:40:45;;;;;;;2.67;1.58;;;;;;;11.59;96.84;101324.53;5012769;28;20448;-68
2021/10/24 03:43:10;;;;;;;2.72;1.63;;;;;;;11.58;96.41;101334.00;5012686;28;20026;-65
2021/10/24 03:45:36;;;;;;;2.45;1.50;;;;;;;12.02;96.54;101416.25;5012450;28;20040;-65
2021/10/24 03:48:01;;;;;;;3.28;1.60;;;;;;;11.97;96.91;101422.09;5012023;28;20030;-65
2021/10/24 03:50:27;;;;;;;2.80;1.70;;;;;;;11.88;96.75;101411.28;5012445;28;20026;-68
2021/10/24 03:52:53;;;;;;;5.85;1.90;;;;;;;11.78;97.26;101404.78;5012157;28;20447;-67
2021/10/24 03:55:18;;;;;;;2.92;1.88;;;;;;;11.91;97.69;101420.88;5011135;28;20025;-67
2021/10/24 03:57:43;;;;;;;2.72;1.67;;;;;;;11.90;97.41;101417.44;5012259;28;20036;-69
2021/10/24 04:00:11;;;;;;;4.43;1.70;;;;;;;11.40;96.77;101339.22;5012046;28;20476;-70
2021/10/24 04:03:09;;;;;;;4.78;2.15;;;;;;;11.78;97.54;101435.81;5009959;28;20038;-68
2021/10/24 04:05:35;;;;;;;2.97;1.60;;;;;;;11.63;97.36;101423.06;4970725;28;20043;-69
2021/10/24 04:08:01;;;;;;;3.92;1.77;;;;;;;11.81;99.03;101432.50;4970210;28;20532;-67
2021/10/24 04:10:28;;;;;;;3.80;1.83;;;;;;;11.85;97.79;101424.09;4970589;28;20607;-67
2021/10/24 04:12:54;;;;;;;3.15;1.50;;;;;;;11.93;97.98;101421.84;4970384;28;20541;-70
2021/10/24 04:15:21;;;;;;;3.47;1.60;;;;;;;11.92;96.70;101435.59;4970223;28;20054;-68
2021/10/24 04:17:47;;;;;;;3.35;1.83;;;;;;;11.86;97.10;101430.13;4970337;28;20585;-65
2021/10/24 04:20:15;;;;;;;2.85;1.90;;;;;;;11.78;97.75;101429.78;4970243;28;20039;-67
2021/10/24 04:22:41;;;;;;;4.93;1.77;;;;;;;11.82;98.34;101434.28;4970348;28;20038;-66
2021/10/24 04:25:09;;;;;;;3.88;1.63;;;;;;;11.54;97.90;101430.38;4953740;28;20047;-69
2021/10/24 04:27:35;;;;;;;2.55;1.52;;;;;;;11.51;97.73;101404.34;4954285;28;20047;-67
2021/10/24 04:30:01;;;;;;;4.53;1.60;;;;;;;11.63;97.72;101441.16;4970467;28;20101;-68
2021/10/24 04:32:27;;;;;;;4.45;1.98;;;;;;;11.56;97.89;101449.41;4970048;28;20071;-68
2021/10/24 04:34:52;;;;;;;3.05;1.75;;;;;;;11.36;97.49;101434.66;4970484;28;20082;-68
2021/10/24 04:37:18;;;;;;;9.48;4.47;;;;;;;11.43;98.67;101463.47;4970286;28;20058;-68
2021/10/24 04:39:44;;;;;;;21.23;12.95;;;;;;;11.30;98.30;101432.63;4969905;28;20046;-65
2021/10/24 04:42:10;;;;;;;10.30;6.50;;;;;;;11.45;97.87;101454.09;5007790;28;20046;-68
2021/10/24 04:44:36;;;;;;;8.38;4.25;;;;;;;10.93;98.90;101376.53;5011663;28;20030;-67
2021/10/24 04:47:03;;;;;;;11.43;4.95;;;;;;;11.45;98.46;101464.44;5011674;28;20038;-68
2021/10/24 04:49:29;;;;;;;7.07;4.22;;;;;;;11.37;97.35;101455.41;5011889;28;20131;-68
2021/10/24 04:51:55;;;;;;;6.85;4.40;;;;;;;11.41;98.46;101477.13;5011540;28;20527;-68
2021/10/24 04:54:22;;;;;;;8.80;4.03;;;;;;;11.40;99.46;101494.34;5011402;28;20127;-67
2021/10/24 04:56:48;;;;;;;6.93;2.30;;;;;;;11.44;98.54;101498.84;5011598;28;20034;-67
2021/10/24 04:59:13;;;;;;;6.50;2.47;;;;;;;11.21;97.48;101489.06;5011515;28;20040;-68
2021/10/24 05:01:39;;;;;;;6.72;2.03;;;;;;;10.97;99.33;101474.06;5011651;28;20026;-69
2021/10/24 05:04:04;;;;;;;5.03;2.65;;;;;;;11.04;98.16;101512.34;5010385;28;20528;-66
2021/10/24 05:06:30;;;;;;;5.65;3.67;;;;;;;11.10;99.53;101516.94;5011329;28;20022;-68
2021/10/24 05:08:55;;;;;;;7.15;4.47;;;;;;;11.07;99.65;101530.59;5011443;28;20041;-68
2021/10/24 05:11:21;;;;;;;16.13;10.65;;;;;;;10.93;99.31;101510.88;5013096;28;20551;-68
2021/10/24 05:13:46;;;;;;;8.40;3.90;;;;;;;10.54;99.78;101461.50;5015208;28;20489;-67
2021/10/24 05:16:12;;;;;;;6.53;3.80;;;;;;;10.93;100.00;101535.03;5015151;28;20042;-68
2021/10/24 05:18:37;;;;;;;8.75;6.25;;;;;;;11.02;99.86;101544.97;5015050;28;20054;-69
2021/10/24 05:21:03;;;;;;;8.05;5.75;;;;;;;10.87;99.59;101539.00;5015012;28;20029;-68
2021/10/24 05:23:28;;;;;;;5.18;2.95;;;;;;;10.58;99.68;101495.31;5014644;28;20040;-71
2021/10/24 05:25:54;;;;;;;4.20;2.45;;;;;;;11.02;99.74;101562.19;5015258;28;20026;-69
2021/10/24 05:28:19;;;;;;;4.57;2.83;;;;;;;10.98;99.33;101549.06;5014796;28;20037;-68
2021/10/24 05:30:45;;;;;;;5.15;2.80;;;;;;;10.85;98.76;101544.06;5014909;28;20399;-67
2021/10/24 05:33:10;;;;;;;5.40;3.10;;;;;;;10.95;98.96;101536.00;5014976;28;20468;-67
2021/10/24 05:35:36;;;;;;;6.15;3.35;;;;;;;10.96;98.51;101553.25;5014788;28;20103;-70
2021/10/24 05:38:01;;;;;;;7.93;2.67;;;;;;;11.17;98.52;101576.75;5014449;28;20037;-68
2021/10/24 05:40:27;;;;;;;8.20;2.90;;;;;;;11.14;98.58;101565.38;5014619;28;20447;-67
2021/10/24 05:42:53;;;;;;;5.43;2.63;;;;;;;11.35;98.69;101581.09;5014604;28;20056;-71
2021/10/24 05:45:18;;;;;;;4.18;2.20;;;;;;;11.47;97.47;101594.66;5014564;28;20018;-67
2021/10/24 05:47:44;;;;;;;5.28;2.45;;;;;;;11.45;95.87;101604.06;5045131;28;20038;-71
2021/10/24 05:50:10;;;;;;;6.00;2.92;;;;;;;11.40;95.54;101600.38;5014309;28;20026;-70
2021/10/24 05:52:36;;;;;;;13.13;8.60;;;;;;;11.26;95.93;101578.94;5029569;28;20110;-66
2021/10/24 05:55:03;;;;;;;10.20;6.35;;;;;;;11.19;95.44;101604.41;5009858;28;20049;-68
2021/10/24 05:57:29;;;;;;;11.50;6.43;;;;;;;10.93;94.74;101591.88;5008240;28;20085;-71
2021/10/24 05:59:54;;;;;;;12.18;7.32;;;;;;;11.04;96.61;101609.63;5014279;28;20048;-67
2021/10/24 06:02:20;;;;;;;9.38;5.32;;;;;;;10.91;97.17;101614.16;5014529;28;20370;-67
2021/10/24 06:04:45;;;;;;;7.93;3.65;;;;;;;10.89;97.99;101622.63;5014363;28;20357;-67
2021/10/24 06:07:11;;;;;;;5.38;3.10;;;;;;;10.87;97.77;101638.06;5014577;28;20026;-66
2021/10/24 06:09:50;;;;;;;8.85;3.42;;;;;;;10.94;98.16;101644.41;5013687;28;20026;-67
2021/10/24 06:15:15;;;;;;;4.28;2.90;;;;;;;11.14;97.65;101650.66;4989174;28;20061;-67
2021/10/24 06:17:43;;;;;;;5.38;3.08;;;;;;;11.14;96.53;101661.00;4980875;28;21587;-65
2021/10/24 06:20:09;;;;;;;6.18;2.55;;;;;;;11.25;97.22;101669.34;4982664;28;20042;-66
2021/10/24 06:22:37;;;;;;;5.30;3.20;;;;;;;10.90;97.01;101583.06;4980768;28;20035;-68
2021/10/24 06:25:03;;;;;;;6.05;3.45;;;;;;;11.30;96.14;101640.34;4986037;28;20047;-66
2021/10/24 06:27:29;;;;;;;7.70;4.40;;;;;;;11.46;94.46;101659.25;4983328;28;20031;-67
2021/10/24 06:29:54;;;;;;;12.15;8.38;;;;;;;11.58;94.55;101679.72;4982505;28;20130;-64
2021/10/24 06:32:20;;;;;;;6.68;4.40;;;;;;;11.58;94.71;101685.75;4990253;28;20057;-68
2021/10/24 06:34:45;;;;;;;6.15;4.13;;;;;;;11.38;94.21;101657.97;4980775;28;20031;-66
2021/10/24 06:37:11;;;;;;;6.93;4.10;;;;;;;11.46;95.59;101678.25;4981711;28;20504;-65
2021/10/24 06:39:36;;;;;;;5.30;2.63;;;;;;;11.22;94.39;101659.72;4982003;28;20489;-66
2021/10/24 06:42:02;;;;;;;5.22;2.58;;;;;;;10.67;92.69;101604.25;4980255;28;20073;-65
2021/10/24 06:44:27;;;;;;;4.55;2.45;;;;;;;11.09;90.65;101706.38;4958738;28;20543;-67
2021/10/24 06:46:53;;;;;;;4.18;2.47;;;;;;;11.07;92.24;101703.72;4981359;28;20030;-67
2021/10/24 06:49:18;;;;;;;6.88;2.72;;;;;;;10.96;93.71;101694.50;4982047;28;20444;-67
2021/10/24 06:51:44;;;;;;;4.13;2.38;;;;;;;11.13;94.26;101709.22;4998342;28;20045;-66
2021/10/24 06:54:09;;;;;;;3.95;2.38;;;;;;;11.15;93.22;101710.22;5007596;28;20038;-67
2021/10/24 06:56:35;;;;;;;5.97;2.40;;;;;;;11.11;91.91;101713.41;5012560;28;20022;-67
2021/10/24 06:59:00;;;;;;;12.32;6.63;;;;;;;10.96;90.67;101704.84;5007164;28;20592;-67
2021/10/24 07:01:25;;;;;;;9.13;4.18;;;;;;;10.99;90.00;101710.16;4996145;28;20511;-66
2021/10/24 07:03:51;;;;;;;5.72;3.15;;;;;;;10.86;88.98;101703.44;4994741;28;20019;-71
2021/10/24 07:06:16;;;;;;;3.95;2.53;;;;;;;10.94;87.80;101709.03;4995816;28;20088;-67
2021/10/24 07:08:42;;;;;;;12.48;7.45;;;;;;;10.96;90.29;101708.28;4999177;28;20025;-67
2021/10/24 07:11:08;;;;;;;18.08;10.85;;;;;;;10.96;88.02;101705.72;5012199;28;20072;-66
2021/10/24 07:13:33;;;;;;;14.80;9.77;;;;;;;10.98;86.59;101696.38;5004824;28;20030;-67
2021/10/24 07:16:00;;;;;;;15.20;8.60;;;;;;;11.05;87.96;101707.03;5004094;28;20451;-66
2021/10/24 07:18:26;;;;;;;8.98;4.90;;;;;;;10.97;86.91;101719.53;4992086;28;20042;-66
2021/10/24 07:20:51;;;;;;;8.20;4.43;;;;;;;10.94;87.36;101701.25;4996998;28;20468;-64
2021/10/24 07:23:17;;;;;;;13.57;4.53;;;;;;;11.09;87.74;101725.38;5007566;28;20030;-68
2021/10/24 07:25:42;;;;;;;7.38;4.60;;;;;;;11.13;87.09;101722.16;4993416;28;20018;-65
2021/10/24 07:28:07;;;;;;;7.78;4.53;;;;;;;11.16;86.21;101721.44;4991580;28;20027;-68
2021/10/24 07:30:33;;;;;;;4.35;3.03;;;;;;;10.81;84.79;101660.97;4994500;28;20527;-67
2021/10/24 07:32:58;;;;;;;8.10;2.80;;;;;;;11.31;86.87;101724.88;5010694;28;20523;-70
2021/10/24 07:35:24;;;;;;;9.65;3.30;;;;;;;11.35;85.79;101730.19;4992957;28;20030;-66
2021/10/24 07:37:49;;;;;;;6.82;2.97;;;;;;;11.35;84.35;101748.28;4993503;28;20034;-64
2021/10/24 07:40:17;;;;;;;6.30;2.90;;;;;;;11.33;82.54;101725.81;4992282;28;20033;-67
2021/10/24 07:42:43;;;;;;;5.45;2.80;;;;;;;11.28;81.82;101713.47;4992709;28;20102;-67
2021/10/24 07:45:09;;;;;;;6.03;2.90;;;;;;;11.45;82.38;101737.63;4995945;28;20498;-66
2021/10/24 07:47:35;;;;;;;7.93;4.53;;;;;;;11.53;82.84;101738.06;5004757;28;20029;-66
2021/10/24 07:50:06;;;;;;;7.35;3.30;;;;;;;11.59;83.22;101728.91;4997443;28;20043;-66
2021/10/24 07:52:32;;;;;;;6.95;3.70;;;;;;;11.62;80.87;101728.19;5005157;28;20030;-66
2021/10/24 07:54:58;;;;;;;6.05;2.95;;;;;;;11.63;79.51;101711.88;4994198;28;20052;-65
2021/10/24 07:57:23;;;;;;;11.05;5.43;;;;;;;11.71;80.94;101701.91;4993477;28;20030;-65
2021/10/24 07:59:49;;;;;;;4.05;2.53;;;;;;;11.95;78.59;101715.22;4995305;28;20397;-67
2021/10/24 08:02:18;;;;;;;4.40;2.60;;;;;;;11.94;74.66;101731.59;5007140;28;20104;-70
2021/10/24 08:04:45;;;;;;;4.68;2.22;;;;;;;11.86;73.28;101717.34;4992888;28;20018;-67
2021/10/24 08:07:10;;;;;;;6.22;2.10;;;;;;;11.31;74.02;101651.56;4994854;28;20037;-65
2021/10/24 08:09:35;;;;;;;4.95;2.38;;;;;;;11.92;76.21;101746.13;4992971;28;20030;-65
2021/10/24 08:12:01;;;;;;;4.50;2.13;;;;;;;11.92;72.93;101738.38;4993950;28;20083;-64
2021/10/24 08:14:27;;;;;;;5.60;2.30;;;;;;;11.89;70.86;101741.69;4992433;28;20481;-66
2021/10/24 08:16:52;;;;;;;5.30;2.35;;;;;;;12.01;73.87;101746.63;4993433;28;20026;-67
2021/10/24 08:19:18;;;;;;;4.72;2.03;;;;;;;11.92;68.35;101747.00;4991814;28;20401;-63
2021/10/24 08:21:44;;;;;;;5.55;2.28;;;;;;;11.87;70.43;101747.59;4991727;28;20085;-65
2021/10/24 08:24:10;;;;;;;4.95;2.30;;;;;;;11.92;71.18;101746.13;5008920;28;20470;-65
2021/10/24 08:26:35;;;;;;;3.25;2.03;;;;;;;12.02;69.31;101757.88;5010222;28;20026;-65
2021/10/24 08:29:01;;;;;;;5.72;1.83;;;;;;;11.44;68.14;101673.78;5001920;28;20026;-65
2021/10/24 08:31:28;;;;;;;4.90;2.20;;;;;;;12.02;72.33;101766.53;5011353;28;20241;-66
2021/10/24 08:33:57;;;;;;;4.65;2.10;;;;;;;12.19;70.90;101769.13;5002358;28;20034;-69
2021/10/24 08:36:24;;;;;;;6.32;2.45;;;;;;;12.46;72.36;101773.09;4999272;28;20050;-65
2021/10/24 08:38:50;;;;;;;6.43;2.15;;;;;;;12.49;69.86;101766.31;5026154;28;20414;-66
2021/10/24 08:41:27;;;;;;;4.35;2.42;;;;;;;12.61;69.09;101772.06;4995185;28;20053;-64
2021/10/24 08:43:59;;;;;;;5.70;2.60;;;;;;;12.66;65.55;101770.63;4993121;28;20113;-64
2021/10/24 08:46:25;;;;;;;5.13;2.17;;;;;;;12.75;65.97;101763.28;4995884;28;20033;-66
2021/10/24 08:48:51;;;;;;;5.88;2.90;;;;;;;12.89;65.91;101773.44;4997007;28;20081;-66
2021/10/24 08:51:18;;;;;;;7.28;3.38;;;;;;;13.32;69.57;101788.47;4999158;28;20026;-63
2021/10/24 08:53:45;;;;;;;8.48;4.15;;;;;;;13.22;64.86;101781.03;4996234;28;20098;-66
2021/10/24 08:56:18;;;;;;;5.50;2.15;;;;;;;12.73;65.60;101709.63;5011517;28;20389;-64
2021/10/24 08:58:45;;;;;;;5.07;2.17;;;;;;;12.92;65.66;101791.72;5011287;28;20436;-64
2021/10/24 09:01:11;;;;;;;5.95;2.75;;;;;;;13.19;68.65;101793.88;5003667;28;20045;-66
2021/10/24 09:03:37;;;;;;;5.45;2.25;;;;;;;12.57;66.78;101690.75;4994907;28;20026;-66
2021/10/24 09:06:05;;;;;;;3.47;2.03;;;;;;;13.01;64.07;101763.66;4997891;28;20405;-67
2021/10/24 09:08:31;;;;;;;4.75;1.92;;;;;;;12.66;62.65;101692.00;5004544;28;20037;-66
2021/10/24 09:11:02;;;;;;;9.88;2.20;;;;;;;13.23;64.29;101783.72;5014762;28;20026;-67
2021/10/24 09:13:31;;;;;;;6.50;2.33;;;;;;;13.52;68.23;101767.75;5015044;28;20037;-67
2021/10/24 09:16:07;;;;;;;3.50;2.05;;;;;;;13.87;65.32;101784.06;5015170;28;20022;-67
2021/10/24 09:18:34;;;;;;;6.22;2.53;;;;;;;14.14;65.35;101786.94;5013581;28;20050;-67
2021/10/24 09:21:14;;;;;;;5.38;2.08;;;;;;;14.19;64.55;101780.28;5014598;28;20046;-67
2021/10/24 09:23:41;;;;;;;4.57;2.10;;;;;;;14.21;63.04;101778.59;5014955;28;20026;-67
2021/10/24 09:26:21;;;;;;;3.92;2.05;;;;;;;14.05;59.91;101781.38;5015390;28;20115;-68
2021/10/24 09:29:01;;;;;;;5.55;2.10;;;;;;;14.02;60.90;101781.25;5015031;28;20464;-67
2021/10/24 09:31:40;;;;;;;4.25;2.40;;;;;;;13.33;63.17;101699.44;5014726;28;20042;-67
2021/10/24 09:34:12;;;;;;;13.75;6.93;;;;;;;13.83;61.92;101775.25;5014962;28;20499;-68
2021/10/24 09:36:54;;;;;;;4.05;2.35;;;;;;;13.54;60.96;101798.13;5014927;28;20042;-66
2021/10/24 09:39:24;;;;;;;5.47;2.95;;;;;;;13.56;63.56;101793.91;5015063;28;20029;-67
2021/10/24 09:41:50;;;;;;;4.18;2.38;;;;;;;13.43;63.53;101784.69;5014550;28;20088;-67
2021/10/24 09:44:22;;;;;;;4.75;2.72;;;;;;;13.26;64.18;101767.41;5014830;28;20030;-67
2021/10/24 09:46:54;;;;;;;4.50;2.17;;;;;;;13.34;62.78;101778.16;5014778;28;20101;-71
2021/10/24 09:49:20;;;;;;;4.03;2.00;;;;;;;13.39;64.30;101785.34;5014611;28;20022;-67
2021/10/24 09:51:46;;;;;;;4.35;1.95;;;;;;;13.16;63.05;101785.94;5014627;28;20460;-67
2021/10/24 09:54:25;;;;;;;3.90;2.30;;;;;;;13.42;65.36;101787.19;5014606;28;20032;-66
2021/10/24 09:56:51;;;;;;;3.75;2.20;;;;;;;13.70;63.98;101778.97;5013781;28;20478;-67
2021/10/24 09:59:22;;;;;;;5.47;2.72;;;;;;;13.77;62.82;101792.22;5014398;28;20041;-67
2021/10/24 10:01:49;;;;;;;5.22;2.50;;;;;;;13.98;62.21;101782.81;5014457;28;20076;-67
2021/10/24 10:04:15;;;;;;;4.05;2.38;;;;;;;14.07;60.63;101778.00;5014532;28;20026;-67
2021/10/24 10:06:43;;;;;;;4.72;2.50;;;;;;;14.32;62.96;101781.66;5013743;28;20562;-67
2021/10/24 10:09:09;;;;;;;3.67;2.13;;;;;;;14.49;61.34;101778.88;5014062;28;20029;-66
2021/10/24 10:11:49;;;;;;;4.68;2.65;;;;;;;14.67;60.94;101771.03;5014089;28;20106;-67
2021/10/24 10:14:28;;;;;;;4.65;2.30;;;;;;;14.93;60.91;101777.28;4998308;28;20485;-67
2021/10/24 10:17:04;;;;;;;4.60;2.33;;;;;;;14.84;60.95;101770.00;5004129;28;20034;-67
2021/10/24 10:19:35;;;;;;;4.40;2.25;;;;;;;14.93;60.02;101772.06;5015032;28;20080;-67
2021/10/24 10:22:22;;;;;;;5.88;2.20;;;;;;;15.09;58.63;101772.66;4998406;28;20076;-68
2021/10/24 10:24:57;;;;;;;3.38;2.08;;;;;;;14.97;58.73;101767.88;5006613;28;20119;-69
2021/10/24 10:27:28;;;;;;;5.70;2.30;;;;;;;14.97;58.23;101776.56;5012946;28;20123;-67
2021/10/24 10:29:57;;;;;;;3.47;2.13;;;;;;;14.85;60.40;101776.97;5010596;28;20062;-67
2021/10/24 10:32:35;;;;;;;3.53;2.30;;;;;;;14.99;59.63;101790.53;5013191;28;20030;-69
2021/10/24 10:35:10;;;;;;;4.72;2.30;;;;;;;15.11;58.77;101766.69;5013271;28;20041;-68
2021/10/24 10:37:51;;;;;;;4.03;2.10;;;;;;;15.12;59.08;101767.59;5010573;28;20034;-69
2021/10/24 10:40:26;;;;;;;3.92;2.25;;;;;;;15.15;59.13;101758.22;5010831;28;20503;-67
2021/10/24 10:43:14;;;;;;;4.45;2.25;;;;;;;15.23;58.31;101766.31;5012347;28;20038;-67
2021/10/24 10:45:47;;;;;;;6.57;2.65;;;;;;;15.29;58.42;101770.84;5030228;28;20041;-67
2021/10/24 10:48:18;;;;;;;5.38;2.30;;;;;;;15.30;57.01;101770.91;5021664;28;20460;-65
2021/10/24 10:50:46;;;;;;;4.85;2.00;;;;;;;15.30;56.67;101778.72;5013148;28;20037;-66
2021/10/24 10:53:31;;;;;;;4.80;2.45;;;;;;;15.03;57.77;101781.13;5019810;28;20017;-68
2021/10/24 10:56:13;;;;;;;3.35;2.08;;;;;;;15.25;55.62;101769.81;5020568;28;20134;-66
2021/10/24 10:58:41;;;;;;;5.28;2.30;;;;;;;15.11;56.41;101786.63;5027238;28;20037;-66
2021/10/24 11:01:28;;;;;;;4.65;2.30;;;;;;;15.05;57.25;101787.25;5029289;28;20033;-66
2021/10/24 11:03:57;;;;;;;5.07;2.65;;;;;;;14.86;57.38;101757.03;5020596;28;20045;-65
2021/10/24 11:06:22;;;;;;;5.80;2.47;;;;;;;15.13;57.87;101798.00;5013041;28;20045;-67
2021/10/24 11:08:53;;;;;;;4.40;2.72;;;;;;;14.72;56.24;101715.78;5021768;28;20102;-66
2021/10/24 11:11:43;;;;;;;8.80;2.80;;;;;;;14.93;56.58;101768.56;5024770;28;20120;-67
2021/10/24 11:14:15;;;;;;;4.38;2.15;;;;;;;14.85;55.35;101795.16;5028030;28;20041;-68
2021/10/24 11:16:53;;;;;;;5.18;2.28;;;;;;;14.94;58.52;101798.94;5021320;28;20099;-67
2021/10/24 11:19:37;;;;;;;5.17;2.10;;;;;;;15.07;58.03;101795.16;5018394;28;20460;-68
2021/10/24 11:22:09;;;;;;;5.47;2.60;;;;;;;15.16;55.70;101803.31;5011402;28;20042;-67
2021/10/24 11:24:54;;;;;;;5.57;2.35;;;;;;;15.20;56.94;101797.38;4982516;28;20042;-68
2021/10/24 11:27:38;;;;;;;4.45;2.28;;;;;;;15.37;55.35;101790.25;4982778;28;20127;-67